Time;durP1;ratioP1;P1;durP2;ratioP2;P2;SDS_P1;SDS_P2;PMS_P1;PMS_P2;Temp;Humidity;BMP_temperature;BMP_pressure;BME280_temperature;BME280_humidity;BME280_pressure;Samples;Min_cycle;Max_cycle;Signal;HPM_P1;HPM_P2
2022/12/25 00:00:22;;;;;;;55.95;12.23;;;3.80;99.90;;;;;;5023877;28;20432;-70
2022/12/25 00:02:47;;;;;;;52.05;12.38;;;3.90;99.90;;;;;;5024095;28;20105;-70
2022/12/25 00:05:13;;;;;;;56.13;12.68;;;4.00;99.90;;;;;;5019176;28;20466;-71
2022/12/25 00:07:38;;;;;;;57.53;13.50;;;3.90;99.90;;;;;;5025708;28;20032;-73
2022/12/25 00:10:04;;;;;;;54.33;12.02;;;3.90;99.90;;;;;;5029645;28;20049;-70
2022/12/25 00:12:30;;;;;;;50.58;12.80;;;3.90;99.90;;;;;;5031004;28;20033;-70
2022/12/25 00:14:55;;;;;;;48.83;12.18;;;3.80;99.90;;;;;;5029635;28;20056;-72
2022/12/25 00:17:21;;;;;;;53.67;12.65;;;3.90;99.90;;;;;;5030100;28;20088;-70
2022/12/25 00:19:46;;;;;;;58.40;13.38;;;3.90;99.90;;;;;;5023151;28;20053;-70
2022/12/25 00:22:12;;;;;;;60.33;12.77;;;3.90;99.90;;;;;;5029660;28;20072;-70
2022/12/25 00:24:37;;;;;;;63.38;13.18;;;3.90;99.90;;;;;;5030316;28;20067;-70
2022/12/25 00:27:03;;;;;;;62.80;13.07;;;4.00;99.90;;;;;;5032569;28;20519;-71
2022/12/25 00:29:28;;;;;;;64.95;14.90;;;4.00;99.90;;;;;;5034723;28;20036;-72
2022/12/25 00:31:54;;;;;;;56.22;14.00;;;4.10;99.90;;;;;;5031113;28;20041;-70
2022/12/25 00:34:19;;;;;;;68.47;13.93;;;4.00;99.90;;;;;;5031237;28;20122;-70
2022/12/25 00:36:44;;;;;;;63.88;14.90;;;4.00;99.90;;;;;;5032909;28;20025;-70
2022/12/25 00:39:10;;;;;;;59.00;13.93;;;4.10;99.90;;;;;;5031513;28;20029;-70
2022/12/25 00:44:20;;;;;;;60.42;14.15;;;4.00;99.90;;;;;;5030630;28;20401;-71
2022/12/25 00:46:45;;;;;;;76.72;14.73;;;4.00;99.90;;;;;;5023667;28;20033;-70
2022/12/25 00:49:12;;;;;;;84.97;15.77;;;4.00;99.90;;;;;;5031674;28;20531;-70
2022/12/25 00:51:38;;;;;;;64.32;13.70;;;4.00;99.90;;;;;;5030396;28;20056;-70
2022/12/25 00:54:03;;;;;;;65.88;14.93;;;4.00;99.90;;;;;;5044383;28;20033;-72
2022/12/25 00:56:29;;;;;;;84.40;14.82;;;3.90;99.90;;;;;;5032684;28;20029;-72
2022/12/25 00:58:54;;;;;;;62.30;14.68;;;4.00;99.90;;;;;;5028846;28;20033;-72
2022/12/25 01:01:20;;;;;;;79.55;15.43;;;4.00;99.90;;;;;;5030734;28;20034;-71
2022/12/25 01:03:45;;;;;;;72.63;14.95;;;4.00;99.90;;;;;;5031287;28;20480;-71
2022/12/25 01:06:12;;;;;;;84.20;15.63;;;4.10;99.90;;;;;;5030437;28;20117;-70
2022/12/25 01:10:21;;;;;;;78.00;16.08;;;4.10;99.90;;;;;;5034752;28;20116;-71
2022/12/25 01:11:25;;;;;;;69.22;14.82;;;4.10;99.90;;;;;;5024784;28;20037;-70
2022/12/25 01:13:51;;;;;;;78.95;15.90;;;4.10;99.90;;;;;;5029345;28;20119;-70
2022/12/25 01:16:16;;;;;;;83.90;16.25;;;4.10;99.90;;;;;;5028372;28;20093;-70
2022/12/25 01:18:43;;;;;;;74.45;15.43;;;4.20;99.90;;;;;;5030078;28;20401;-70
2022/12/25 01:21:11;;;;;;;81.90;15.43;;;4.10;99.90;;;;;;5031045;28;20049;-70
2022/12/25 01:23:37;;;;;;;71.50;14.98;;;4.20;99.90;;;;;;5034667;28;20033;-73
2022/12/25 01:26:04;;;;;;;93.60;17.27;;;4.20;99.90;;;;;;5026095;28;21036;-71
2022/12/25 01:28:30;;;;;;;87.43;15.77;;;4.20;99.90;;;;;;5030429;28;20041;-70
2022/12/25 01:30:55;;;;;;;77.30;16.92;;;4.20;99.90;;;;;;5033058;28;20495;-70
2022/12/25 01:33:20;;;;;;;92.47;16.27;;;4.20;99.90;;;;;;5032056;28;20046;-70
2022/12/25 01:35:46;;;;;;;102.88;17.85;;;4.20;99.90;;;;;;5025452;28;20044;-73
2022/12/25 01:38:11;;;;;;;78.85;17.05;;;4.10;99.90;;;;;;5033647;28;20100;-70
2022/12/25 01:40:37;;;;;;;97.50;17.08;;;4.10;99.90;;;;;;5032728;28;20041;-70
2022/12/25 01:43:03;;;;;;;94.43;17.13;;;4.10;99.90;;;;;;5031828;28;20076;-71
2022/12/25 01:45:32;;;;;;;73.68;15.48;;;4.10;99.90;;;;;;5032598;28;20033;-71
2022/12/25 01:47:59;;;;;;;87.53;17.10;;;4.10;99.90;;;;;;5032173;28;20052;-72
2022/12/25 01:50:25;;;;;;;80.70;16.70;;;4.10;99.90;;;;;;5030913;28;20541;-72
2022/12/25 01:52:51;;;;;;;72.35;17.02;;;4.00;99.90;;;;;;5028311;28;20025;-71
2022/12/25 01:55:17;;;;;;;89.32;17.20;;;4.10;99.90;;;;;;5028822;28;20032;-71
2022/12/25 01:57:43;;;;;;;85.13;16.25;;;4.10;99.90;;;;;;5030447;28;20393;-70
2022/12/25 02:00:10;;;;;;;87.82;16.92;;;4.10;99.90;;;;;;5027452;28;20033;-70
2022/12/25 02:02:37;;;;;;;90.72;17.83;;;4.20;99.90;;;;;;5026175;28;20041;-71
2022/12/25 02:05:25;;;;;;;74.93;17.25;;;4.30;99.90;;;;;;5029094;28;20037;-75
2022/12/25 02:07:51;;;;;;;80.32;17.05;;;4.10;99.90;;;;;;5031665;28;20108;-70
2022/12/25 02:10:17;;;;;;;96.10;17.50;;;4.20;99.90;;;;;;5032621;28;20025;-71
2022/12/25 02:12:44;;;;;;;93.28;17.60;;;4.30;99.90;;;;;;5028376;28;20044;-72
2022/12/25 02:15:16;;;;;;;94.55;17.90;;;4.30;99.90;;;;;;5030022;28;20063;-71
2022/12/25 02:18:05;;;;;;;89.80;17.23;;;4.40;99.90;;;;;;5032001;28;20469;-70
2022/12/25 02:20:56;;;;;;;87.32;17.63;;;4.50;99.90;;;;;;5026077;28;20018;-71
2022/12/25 02:23:36;;;;;;;95.85;18.20;;;4.50;99.90;;;;;;5031134;28;20037;-74
2022/12/25 02:26:17;;;;;;;88.55;17.15;;;4.50;99.90;;;;;;5024635;28;20033;-70
2022/12/25 02:29:16;;;;;;;88.25;16.98;;;4.40;99.90;;;;;;5025037;28;20030;-70
2022/12/25 02:32:08;;;;;;;81.25;16.65;;;4.30;99.90;;;;;;5031110;28;20025;-70
2022/12/25 02:34:37;;;;;;;88.05;17.38;;;4.20;99.90;;;;;;5024689;28;20533;-71
2022/12/25 02:37:15;;;;;;;81.35;16.48;;;4.10;99.90;;;;;;5030146;28;20034;-71
2022/12/25 02:40:08;;;;;;;93.28;16.80;;;4.10;99.90;;;;;;5030974;28;20026;-70
2022/12/25 03:08:33;;;;;;;94.63;17.10;;;4.30;99.90;;;;;;5025108;28;20041;-70
2022/12/25 03:13:51;;;;;;;111.00;18.40;;;4.40;99.90;;;;;;5028458;28;20040;-71
2022/12/25 03:26:53;;;;;;;87.57;17.63;;;4.40;99.90;;;;;;5019508;28;20048;-72
2022/12/25 03:27:16;;;;;;;79.75;15.80;;;4.60;99.90;;;;;;5024749;28;20083;-72
2022/12/25 03:32:32;;;;;;;90.90;17.75;;;4.70;99.90;;;;;;5025615;28;20107;-70
2022/12/25 03:35:25;;;;;;;88.55;17.80;;;4.70;99.90;;;;;;5015572;28;20061;-72
2022/12/25 04:36:55;;;;;;;68.75;13.88;;;4.60;99.90;;;;;;5026424;28;20129;-72
2022/12/25 04:39:20;;;;;;;68.10;14.52;;;4.60;99.90;;;;;;5024463;28;20455;-73
2022/12/25 04:41:46;;;;;;;75.93;14.73;;;4.60;99.90;;;;;;5026151;28;20068;-70
2022/12/25 04:44:11;;;;;;;78.70;15.15;;;4.60;99.90;;;;;;5023205;28;20033;-78
2022/12/25 04:46:37;;;;;;;71.13;14.55;;;4.60;99.90;;;;;;5028092;28;20041;-69
2022/12/25 04:49:02;;;;;;;81.43;15.18;;;4.60;99.90;;;;;;5024970;28;20099;-71
2022/12/25 04:51:28;;;;;;;66.35;14.73;;;4.60;99.90;;;;;;5027327;28;20044;-71
2022/12/25 04:53:54;;;;;;;59.65;13.57;;;4.60;99.90;;;;;;5020067;28;20508;-70
2022/12/25 04:56:20;;;;;;;76.68;14.88;;;4.60;99.90;;;;;;5024419;28;20037;-70
2022/12/25 04:58:47;;;;;;;74.10;13.43;;;4.60;99.90;;;;;;5029070;28;20674;-74
2022/12/25 05:01:14;;;;;;;66.57;14.18;;;4.60;99.90;;;;;;5025489;28;20069;-71
2022/12/25 05:03:39;;;;;;;60.95;15.27;;;4.70;99.90;;;;;;5027695;28;20037;-70
2022/12/25 05:06:06;;;;;;;82.40;15.02;;;4.70;99.90;;;;;;5019292;28;20060;-70
2022/12/25 05:08:33;;;;;;;78.65;13.80;;;4.80;99.90;;;;;;5025316;28;20220;-70
2022/12/25 05:11:03;;;;;;;61.58;13.90;;;4.90;99.90;;;;;;5028116;28;20064;-70
2022/12/25 05:13:28;;;;;;;75.20;13.98;;;4.90;99.90;;;;;;5023003;28;20044;-69
2022/12/25 05:15:54;;;;;;;67.10;14.48;;;4.90;99.90;;;;;;5028154;28;20042;-70
2022/12/25 05:18:19;;;;;;;69.20;14.52;;;5.00;99.90;;;;;;5032839;28;20060;-71
2022/12/25 05:20:52;;;;;;;71.43;14.27;;;5.00;99.90;;;;;;5026410;28;20931;-72
2022/12/25 05:23:18;;;;;;;65.60;14.07;;;5.00;99.90;;;;;;5029922;28;20025;-72
2022/12/25 05:25:44;;;;;;;63.92;13.73;;;5.00;99.90;;;;;;5031799;28;20533;-70
2022/12/25 05:28:09;;;;;;;61.22;13.05;;;5.00;99.90;;;;;;5031949;28;20037;-69
2022/12/25 05:30:35;;;;;;;67.13;14.35;;;5.10;99.90;;;;;;5026932;28;20042;-69
2022/12/25 05:33:04;;;;;;;66.57;14.23;;;5.10;99.90;;;;;;5032041;28;20038;-70
2022/12/25 05:35:30;;;;;;;50.92;12.82;;;5.10;99.90;;;;;;5028189;28;20075;-69
2022/12/25 05:37:55;;;;;;;76.97;13.63;;;5.10;99.90;;;;;;5032478;28;20068;-69
2022/12/25 05:40:21;;;;;;;68.57;13.98;;;5.00;99.90;;;;;;5025725;28;20116;-69
2022/12/25 05:42:46;;;;;;;80.45;14.10;;;4.90;99.90;;;;;;5031662;28;20033;-69
2022/12/25 05:45:12;;;;;;;51.42;12.75;;;4.90;99.90;;;;;;5023779;28;20449;-72
2022/12/25 05:47:37;;;;;;;79.13;13.45;;;4.80;99.90;;;;;;5022326;28;20037;-70
2022/12/25 05:50:04;;;;;;;62.20;13.35;;;4.60;99.90;;;;;;5028397;28;20482;-72
2022/12/25 05:52:31;;;;;;;69.03;12.88;;;4.60;99.90;;;;;;5030483;28;20029;-69
2022/12/25 05:54:56;;;;;;;59.75;12.63;;;4.60;99.90;;;;;;5026395;28;20064;-69
2022/12/25 05:57:21;;;;;;;55.25;12.50;;;4.60;99.90;;;;;;5032081;28;20060;-69
2022/12/25 05:59:47;;;;;;;64.72;12.82;;;4.60;99.90;;;;;;5031068;28;20046;-69
2022/12/25 06:02:12;;;;;;;48.47;11.93;;;4.60;99.90;;;;;;5018462;28;20033;-69
2022/12/25 06:04:38;;;;;;;66.40;13.32;;;4.60;99.90;;;;;;5025723;28;20032;-69
2022/12/25 06:07:03;;;;;;;70.80;13.88;;;4.70;99.90;;;;;;5024820;28;20037;-70
2022/12/25 06:09:29;;;;;;;60.42;13.93;;;4.80;99.90;;;;;;5021885;28;20044;-69
2022/12/25 06:11:54;;;;;;;68.50;13.05;;;4.80;99.90;;;;;;5022967;28;20114;-69
2022/12/25 06:14:20;;;;;;;69.03;13.38;;;4.90;99.90;;;;;;5027974;28;20463;-69
2022/12/25 06:16:49;;;;;;;69.80;14.00;;;4.90;99.90;;;;;;5023339;28;20033;-69
2022/12/25 06:19:14;;;;;;;59.38;13.10;;;4.90;99.90;;;;;;5022678;28;20157;-70
2022/12/25 06:21:39;;;;;;;66.18;13.23;;;4.90;99.90;;;;;;5023344;28;20136;-69
2022/12/25 06:24:05;;;;;;;61.75;12.88;;;5.00;99.90;;;;;;5026713;28;20033;-69
2022/12/25 06:26:31;;;;;;;69.63;14.60;;;5.00;99.90;;;;;;5030716;28;20523;-69
2022/12/25 06:28:56;;;;;;;57.92;13.60;;;4.90;99.90;;;;;;5030541;28;20168;-69
2022/12/25 06:31:22;;;;;;;75.03;14.00;;;4.90;99.90;;;;;;5020962;28;20390;-69
2022/12/25 06:33:48;;;;;;;63.35;13.57;;;4.90;99.90;;;;;;5027683;28;20035;-69
2022/12/25 06:36:19;;;;;;;66.43;13.05;;;4.80;99.90;;;;;;5028264;28;20382;-69
2022/12/25 06:38:45;;;;;;;64.18;12.88;;;4.80;99.90;;;;;;5029275;28;20040;-69
2022/12/25 06:41:16;;;;;;;66.07;13.07;;;4.80;99.90;;;;;;5026329;28;20033;-69
2022/12/25 06:43:42;;;;;;;51.38;12.25;;;4.80;99.90;;;;;;5030702;28;20033;-69
2022/12/25 06:46:10;;;;;;;60.03;13.07;;;4.70;99.90;;;;;;5026964;28;20045;-69
2022/12/25 06:48:37;;;;;;;53.58;12.40;;;4.70;99.90;;;;;;5030397;28;20034;-69
2022/12/25 06:51:04;;;;;;;65.40;12.60;;;4.80;99.90;;;;;;5028762;28;20033;-70
2022/12/25 06:53:29;;;;;;;60.63;12.77;;;4.80;99.90;;;;;;5026188;28;20033;-69
2022/12/25 06:56:03;;;;;;;45.85;12.10;;;4.90;99.90;;;;;;5032328;28;20040;-69
2022/12/25 06:58:28;;;;;;;57.03;12.43;;;5.00;99.90;;;;;;5028678;28;20030;-69
2022/12/25 07:00:54;;;;;;;50.65;13.05;;;5.00;99.90;;;;;;5029302;28;20347;-70
2022/12/25 07:03:21;;;;;;;56.10;12.32;;;5.00;99.90;;;;;;5030217;28;20117;-69
2022/12/25 07:05:46;;;;;;;61.70;13.20;;;5.10;99.90;;;;;;5027215;28;20104;-69
2022/12/25 07:08:13;;;;;;;57.20;12.43;;;5.10;99.90;;;;;;5028164;28;20033;-69
2022/12/25 07:10:38;;;;;;;60.90;11.80;;;5.00;99.90;;;;;;5025963;28;20037;-69
2022/12/25 07:13:04;;;;;;;54.97;13.75;;;5.10;99.90;;;;;;5024461;28;20489;-69
2022/12/25 07:15:29;;;;;;;58.88;12.90;;;5.30;99.90;;;;;;5029785;28;20037;-72
2022/12/25 07:17:54;;;;;;;57.88;11.85;;;5.30;99.90;;;;;;5029646;28;20103;-70
2022/12/25 07:20:20;;;;;;;59.95;12.35;;;5.20;99.90;;;;;;5027187;28;20022;-69
2022/12/25 07:22:45;;;;;;;56.38;12.52;;;5.30;99.90;;;;;;5028278;28;20552;-69
2022/12/25 07:25:11;;;;;;;58.17;11.77;;;5.30;99.90;;;;;;5026260;28;20096;-69
2022/12/25 07:27:36;;;;;;;55.33;12.95;;;5.30;99.90;;;;;;5028426;28;20361;-69
2022/12/25 07:30:02;;;;;;;55.08;11.98;;;5.40;99.90;;;;;;5030047;28;20580;-71
2022/12/25 07:32:31;;;;;;;70.60;12.38;;;5.30;99.90;;;;;;5025166;28;20033;-70
2022/12/25 07:34:56;;;;;;;57.63;11.80;;;5.40;99.90;;;;;;5022382;28;20473;-69
2022/12/25 07:37:22;;;;;;;56.22;11.45;;;5.30;99.90;;;;;;5025345;28;20061;-70
2022/12/25 07:39:47;;;;;;;58.45;12.30;;;5.30;99.90;;;;;;5029611;28;20045;-69
2022/12/25 07:42:13;;;;;;;70.57;11.80;;;5.40;99.90;;;;;;5028033;28;20453;-70
2022/12/25 07:44:39;;;;;;;56.20;11.65;;;5.40;99.90;;;;;;5031260;28;20040;-69
2022/12/25 07:47:04;;;;;;;50.50;11.38;;;5.40;99.90;;;;;;5026201;28;20029;-69
2022/12/25 07:49:30;;;;;;;49.40;11.25;;;5.50;99.90;;;;;;5021332;28;20155;-69
2022/12/25 07:51:55;;;;;;;53.08;11.95;;;5.50;99.90;;;;;;5021241;28;20104;-70
2022/12/25 07:54:21;;;;;;;46.35;10.70;;;5.60;99.90;;;;;;5016327;28;20120;-70
2022/12/25 07:56:51;;;;;;;59.15;12.20;;;5.60;99.90;;;;;;5024010;28;20042;-70
2022/12/25 07:59:16;;;;;;;51.50;10.43;;;5.60;99.90;;;;;;5029692;28;20382;-70
2022/12/25 08:01:42;;;;;;;56.33;12.02;;;5.60;99.90;;;;;;5022896;28;20055;-70
2022/12/25 08:04:09;;;;;;;53.38;11.30;;;5.60;99.90;;;;;;5022606;28;20489;-71
2022/12/25 08:06:34;;;;;;;51.28;11.60;;;5.60;99.90;;;;;;5026306;28;20069;-69
2022/12/25 08:09:11;;;;;;;51.40;11.68;;;5.70;99.90;;;;;;5024249;28;20122;-69
2022/12/25 08:11:38;;;;;;;45.75;10.40;;;5.70;99.90;;;;;;5029192;28;20066;-70
2022/12/25 08:14:07;;;;;;;42.88;11.13;;;5.70;99.90;;;;;;5020761;28;20041;-70
2022/12/25 08:16:33;;;;;;;54.65;11.90;;;5.70;99.90;;;;;;5023810;28;20374;-68
2022/12/25 08:18:58;;;;;;;60.80;12.18;;;5.70;99.90;;;;;;5024242;28;20040;-69
2022/12/25 08:21:24;;;;;;;43.65;11.55;;;5.80;99.90;;;;;;5025230;28;20037;-68
2022/12/25 08:23:49;;;;;;;49.90;12.07;;;5.80;99.90;;;;;;5029292;28;20042;-68
2022/12/25 08:26:20;;;;;;;40.28;9.90;;;5.80;99.90;;;;;;5028701;28;20203;-69
2022/12/25 08:28:47;;;;;;;38.53;10.18;;;5.80;99.90;;;;;;5019347;28;20596;-67
2022/12/25 08:31:18;;;;;;;41.15;11.07;;;5.90;99.90;;;;;;5023121;28;20029;-68
2022/12/25 08:33:44;;;;;;;50.83;12.10;;;5.90;99.90;;;;;;5022639;28;20483;-68
2022/12/25 08:36:11;;;;;;;58.78;11.77;;;6.00;99.90;;;;;;5024974;28;20388;-69
2022/12/25 08:38:37;;;;;;;51.10;14.32;;;6.00;99.90;;;;;;5029686;28;20461;-69
2022/12/25 08:41:03;;;;;;;49.08;12.30;;;6.00;99.90;;;;;;5022950;28;20045;-67
2022/12/25 08:43:29;;;;;;;39.20;11.27;;;6.00;99.90;;;;;;5029162;28;20464;-68
2022/12/25 08:45:54;;;;;;;46.63;10.93;;;6.00;99.90;;;;;;5027994;28;20389;-72
2022/12/25 08:48:20;;;;;;;39.92;10.48;;;6.10;99.90;;;;;;5029761;28;20048;-66
2022/12/25 08:50:46;;;;;;;42.83;10.88;;;6.10;99.90;;;;;;5030016;28;20033;-68
2022/12/25 08:53:13;;;;;;;38.00;10.25;;;6.10;99.90;;;;;;5028395;28;20042;-67
2022/12/25 08:55:39;;;;;;;41.83;10.45;;;6.10;99.90;;;;;;5029596;28;20376;-67
2022/12/25 08:58:04;;;;;;;48.15;10.70;;;6.10;99.90;;;;;;5023175;28;20116;-67
2022/12/25 09:00:30;;;;;;;43.42;10.73;;;6.10;99.90;;;;;;5026684;28;20037;-67
2022/12/25 09:02:55;;;;;;;44.13;10.48;;;6.10;99.90;;;;;;5030841;28;20099;-68
2022/12/25 09:05:21;;;;;;;42.22;10.48;;;6.20;99.90;;;;;;5030265;28;20037;-66
2022/12/25 09:07:46;;;;;;;37.70;9.73;;;6.20;99.90;;;;;;5023446;28;20111;-69
2022/12/25 09:10:12;;;;;;;41.08;9.82;;;6.20;99.90;;;;;;5027972;28;20034;-67
2022/12/25 09:12:38;;;;;;;39.20;10.15;;;6.30;99.90;;;;;;5027673;28;20034;-67
2022/12/25 09:15:05;;;;;;;41.58;10.40;;;6.30;99.90;;;;;;5030578;28;20095;-70
2022/12/25 09:17:31;;;;;;;33.65;9.20;;;6.30;99.90;;;;;;5027500;28;20033;-67
2022/12/25 09:19:57;;;;;;;35.22;10.40;;;6.40;99.90;;;;;;5025486;28;20037;-68
2022/12/25 09:22:22;;;;;;;35.63;9.73;;;6.40;99.90;;;;;;5023032;28;20041;-67
2022/12/25 09:24:47;;;;;;;31.42;9.38;;;6.40;99.90;;;;;;5029811;28;20116;-67
2022/12/25 09:27:13;;;;;;;38.40;10.00;;;6.40;99.90;;;;;;5023970;28;20044;-68
2022/12/25 09:29:39;;;;;;;31.00;9.88;;;6.50;99.90;;;;;;5028996;28;20030;-66
2022/12/25 09:32:05;;;;;;;47.67;11.02;;;6.50;99.90;;;;;;5025601;28;20165;-66
2022/12/25 09:34:31;;;;;;;34.88;9.85;;;6.50;99.90;;;;;;5023465;28;20026;-66
2022/12/25 09:36:56;;;;;;;30.77;10.75;;;6.50;99.90;;;;;;5026536;28;20026;-67
2022/12/25 09:39:22;;;;;;;34.20;9.57;;;6.60;99.90;;;;;;5030600;28;20076;-66
2022/12/25 09:42:00;;;;;;;36.47;10.38;;;6.60;99.90;;;;;;5022417;28;20561;-68
2022/12/25 09:44:33;;;;;;;33.13;10.45;;;6.60;99.90;;;;;;5024571;28;20067;-70
2022/12/25 09:47:09;;;;;;;34.85;9.85;;;6.70;99.90;;;;;;5026973;28;20033;-68
2022/12/25 09:49:37;;;;;;;34.97;10.48;;;6.70;99.90;;;;;;5023185;28;20068;-68
2022/12/25 09:52:28;;;;;;;36.78;10.07;;;6.70;99.90;;;;;;5018301;28;20122;-68
2022/12/25 09:54:59;;;;;;;30.42;10.25;;;6.70;99.90;;;;;;5025112;28;20033;-69
2022/12/25 09:57:25;;;;;;;32.03;10.43;;;6.80;99.90;;;;;;5021156;28;20037;-69
2022/12/25 09:59:53;;;;;;;36.33;10.50;;;6.80;99.90;;;;;;5026885;28;20029;-72
2022/12/25 10:02:40;;;;;;;33.95;10.27;;;6.80;99.90;;;;;;5021714;28;20106;-70
2022/12/25 10:05:24;;;;;;;39.65;10.25;;;6.80;99.90;;;;;;5020532;28;20042;-74
2022/12/25 10:08:07;;;;;;;34.25;9.82;;;6.80;99.90;;;;;;5028551;28;20068;-72
2022/12/25 10:10:58;;;;;;;31.10;10.10;;;6.80;99.90;;;;;;5024756;28;20033;-71
2022/12/25 10:13:36;;;;;;;29.98;9.35;;;6.80;99.90;;;;;;5029290;28;20064;-69
2022/12/25 10:16:27;;;;;;;32.40;9.57;;;6.80;99.90;;;;;;5027706;28;20358;-68
2022/12/25 10:19:08;;;;;;;31.98;9.77;;;6.80;99.90;;;;;;5027431;28;20819;-69
2022/12/25 10:21:35;;;;;;;28.10;9.45;;;6.80;99.90;;;;;;5027817;28;20053;-71
2022/12/25 10:24:17;;;;;;;35.88;10.48;;;6.80;99.90;;;;;;5033077;28;20029;-72
2022/12/25 10:26:44;;;;;;;28.65;9.02;;;6.90;99.90;;;;;;5019333;28;20362;-70
2022/12/25 10:29:14;;;;;;;23.60;9.30;;;6.90;99.90;;;;;;5029717;28;20036;-70
2022/12/25 10:31:44;;;;;;;36.17;9.27;;;7.00;99.90;;;;;;5026701;28;20053;-71
2022/12/25 10:34:11;;;;;;;34.42;9.98;;;7.00;99.90;;;;;;5021287;28;20060;-73
2022/12/25 10:36:37;;;;;;;31.50;9.82;;;7.10;99.90;;;;;;5029030;28;20384;-71
2022/12/25 10:39:02;;;;;;;29.00;10.23;;;7.10;99.90;;;;;;5024721;28;20108;-71
2022/12/25 10:42:07;;;;;;;34.85;9.40;;;7.10;99.90;;;;;;5032384;28;20052;-68
2022/12/25 10:44:33;;;;;;;28.73;9.35;;;7.10;99.90;;;;;;5027197;28;20080;-72
2022/12/25 10:47:01;;;;;;;35.30;9.50;;;7.10;99.90;;;;;;5028032;28;20034;-66
2022/12/25 10:49:33;;;;;;;28.42;9.18;;;7.20;99.90;;;;;;5023624;28;20032;-65
2022/12/25 10:52:00;;;;;;;36.78;9.65;;;7.20;99.90;;;;;;5021461;28;20061;-67
2022/12/25 10:54:34;;;;;;;31.48;8.77;;;7.20;99.90;;;;;;5034015;28;20025;-66
2022/12/25 10:57:15;;;;;;;24.73;8.50;;;7.20;99.90;;;;;;5031852;28;20048;-66
2022/12/25 10:59:45;;;;;;;33.40;9.03;;;7.30;99.90;;;;;;5028257;28;21461;-67
2022/12/25 11:02:17;;;;;;;32.95;8.68;;;7.30;99.90;;;;;;5032049;28;20287;-66
2022/12/25 11:04:43;;;;;;;29.30;8.40;;;7.30;99.90;;;;;;5026817;28;20037;-66
2022/12/25 11:07:18;;;;;;;26.13;9.60;;;7.20;99.90;;;;;;5013601;28;20036;-68
2022/12/25 11:10:01;;;;;;;31.58;9.10;;;7.30;99.90;;;;;;5028298;28;20402;-67
2022/12/25 11:12:34;;;;;;;26.67;8.88;;;7.30;99.90;;;;;;5017309;28;20026;-67
2022/12/25 11:15:03;;;;;;;26.55;8.30;;;7.30;99.90;;;;;;5022341;28;20090;-68
2022/12/25 11:17:28;;;;;;;24.58;8.20;;;7.30;99.90;;;;;;5026478;28;20026;-67
2022/12/25 11:19:59;;;;;;;30.92;8.30;;;7.30;99.90;;;;;;5024299;28;20045;-68
2022/12/25 11:22:28;;;;;;;28.95;8.10;;;7.40;99.90;;;;;;5028422;28;20049;-67
2022/12/25 11:24:54;;;;;;;21.63;7.68;;;7.30;99.90;;;;;;5024849;28;20129;-68
2022/12/25 11:27:26;;;;;;;24.05;7.53;;;7.40;99.90;;;;;;5027866;28;20048;-69
2022/12/25 11:29:57;;;;;;;24.50;8.27;;;7.30;99.90;;;;;;5022741;28;20040;-68
2022/12/25 11:32:32;;;;;;;24.20;8.25;;;7.30;99.90;;;;;;5028448;28;20037;-68
2022/12/25 11:35:00;;;;;;;25.27;8.50;;;7.40;99.90;;;;;;5023297;28;20072;-69
2022/12/25 11:37:34;;;;;;;25.85;7.75;;;7.40;99.90;;;;;;5028767;28;20030;-69
2022/12/25 11:40:00;;;;;;;32.40;7.40;;;7.40;99.90;;;;;;5028877;28;20071;-68
2022/12/25 11:42:35;;;;;;;26.67;7.38;;;7.40;99.90;;;;;;5028470;28;20033;-70
2022/12/25 11:45:16;;;;;;;14.70;6.25;;;7.40;99.90;;;;;;5029752;28;20041;-69
2022/12/25 11:47:56;;;;;;;20.08;7.00;;;7.40;99.90;;;;;;5020245;28;20401;-67
2022/12/25 11:50:25;;;;;;;20.40;6.50;;;7.40;99.90;;;;;;5025436;28;20040;-69
2022/12/25 11:52:52;;;;;;;20.88;6.80;;;7.40;99.90;;;;;;5024159;28;20030;-73
2022/12/25 11:55:39;;;;;;;24.70;7.10;;;7.40;99.90;;;;;;5016483;28;20121;-73
2022/12/25 11:58:17;;;;;;;22.60;7.10;;;7.40;99.90;;;;;;5023565;28;20025;-71
2022/12/25 12:00:45;;;;;;;23.48;7.38;;;7.50;99.90;;;;;;5022480;28;20548;-74
2022/12/25 12:03:14;;;;;;;25.35;7.75;;;7.50;99.90;;;;;;5026983;28;20021;-71
2022/12/25 12:05:55;;;;;;;20.40;6.80;;;7.50;99.90;;;;;;5027583;28;20042;-71
2022/12/25 12:08:21;;;;;;;19.48;5.78;;;7.50;99.90;;;;;;5017729;28;20037;-69
2022/12/25 12:11:14;;;;;;;22.65;6.55;;;7.50;99.90;;;;;;5030755;28;20099;-66
2022/12/25 12:13:52;;;;;;;18.95;6.30;;;7.50;99.90;;;;;;5017390;28;20088;-67
2022/12/25 12:16:17;;;;;;;26.55;7.63;;;7.50;99.90;;;;;;5029885;28;20029;-68
2022/12/25 12:18:44;;;;;;;23.10;7.40;;;7.50;99.90;;;;;;5029838;28;20095;-67
2022/12/25 12:21:16;;;;;;;25.58;6.75;;;7.60;99.90;;;;;;5027066;28;20057;-68
2022/12/25 12:24:02;;;;;;;30.65;8.02;;;7.60;99.90;;;;;;5034573;28;20041;-71
2022/12/25 12:26:30;;;;;;;22.55;7.40;;;7.60;99.90;;;;;;5029411;28;20120;-70
2022/12/25 12:29:01;;;;;;;18.05;6.35;;;7.60;99.90;;;;;;5030044;28;20757;-71
2022/12/25 12:31:40;;;;;;;16.55;6.80;;;7.60;99.90;;;;;;5030250;28;20112;-70
2022/12/25 12:34:15;;;;;;;23.17;6.38;;;7.60;99.90;;;;;;5032748;28;20030;-71
2022/12/25 12:36:40;;;;;;;16.40;5.55;;;7.60;99.90;;;;;;5029579;28;20030;-71
2022/12/25 12:39:06;;;;;;;16.38;5.85;;;7.60;99.90;;;;;;5039449;28;20036;-69
2022/12/25 12:41:47;;;;;;;19.33;5.82;;;7.60;99.90;;;;;;5032524;28;20039;-70
2022/12/25 12:44:14;;;;;;;20.17;6.47;;;7.60;99.90;;;;;;5029050;28;20034;-69
2022/12/25 12:46:53;;;;;;;21.70;6.53;;;7.60;99.90;;;;;;5026209;28;20144;-69
2022/12/25 12:49:31;;;;;;;25.90;6.40;;;7.60;99.90;;;;;;5022398;28;20116;-70
2022/12/25 12:52:23;;;;;;;20.60;6.18;;;7.50;99.90;;;;;;5021667;28;20478;-68
2022/12/25 12:54:57;;;;;;;17.17;5.95;;;7.50;99.90;;;;;;5031638;28;20856;-70
2022/12/25 12:57:25;;;;;;;18.92;6.65;;;7.50;99.90;;;;;;5021958;28;20030;-71
2022/12/25 12:59:51;;;;;;;21.02;6.82;;;7.50;99.90;;;;;;5025795;28;20112;-70
2022/12/25 13:03:00;;;;;;;17.30;6.85;;;7.50;99.90;;;;;;5027458;28;20109;-77
2022/12/25 13:05:32;;;;;;;18.58;6.57;;;7.40;99.90;;;;;;5019938;28;20034;-72
2022/12/25 13:08:12;;;;;;;22.15;6.63;;;7.50;99.90;;;;;;5024531;28;20040;-70
2022/12/25 13:10:43;;;;;;;18.63;7.32;;;7.40;99.90;;;;;;5029384;28;20075;-69
2022/12/25 13:13:18;;;;;;;18.25;7.07;;;7.40;99.90;;;;;;5030303;28;20041;-68
2022/12/25 13:15:47;;;;;;;21.58;6.95;;;7.50;99.90;;;;;;5022739;28;20037;-73
2022/12/25 13:18:13;;;;;;;15.50;5.95;;;7.50;99.90;;;;;;5015836;28;20048;-72
2022/12/25 13:20:38;;;;;;;15.63;5.82;;;7.50;99.90;;;;;;5029663;28;20025;-68
2022/12/25 13:23:34;;;;;;;15.15;6.53;;;7.50;99.90;;;;;;5031431;28;20479;-69
2022/12/25 13:26:10;;;;;;;20.08;6.05;;;7.40;99.90;;;;;;5025250;28;20461;-71
2022/12/25 13:28:36;;;;;;;23.42;7.13;;;7.40;99.90;;;;;;5031147;28;20030;-73
2022/12/25 13:31:23;;;;;;;18.55;7.13;;;7.40;99.90;;;;;;5030238;28;20029;-70
2022/12/25 13:34:19;;;;;;;18.60;6.75;;;7.40;99.90;;;;;;5025799;28;20030;-71
2022/12/25 13:36:44;;;;;;;16.95;6.63;;;7.40;99.90;;;;;;5020235;28;20034;-73
2022/12/25 13:39:15;;;;;;;22.88;6.80;;;7.40;99.90;;;;;;5034156;28;20038;-70
2022/12/25 13:42:05;;;;;;;25.80;7.15;;;7.30;99.90;;;;;;5027933;28;20907;-71
2022/12/25 13:44:42;;;;;;;21.40;7.50;;;7.30;99.90;;;;;;5029971;28;20041;-71
2022/12/25 13:47:15;;;;;;;22.38;7.72;;;7.30;99.90;;;;;;5032044;28;20099;-76
2022/12/25 13:49:40;;;;;;;26.83;7.90;;;7.30;99.90;;;;;;5029745;28;20034;-69
2022/12/25 13:52:12;;;;;;;17.88;7.13;;;7.30;99.90;;;;;;5031692;28;20087;-71
2022/12/25 13:54:37;;;;;;;23.45;6.88;;;7.30;99.90;;;;;;5031775;28;20092;-74
2022/12/25 13:57:10;;;;;;;18.92;7.38;;;7.30;99.90;;;;;;5030622;28;20420;-73
2022/12/25 13:59:36;;;;;;;26.85;7.40;;;7.30;99.90;;;;;;5032528;28;20957;-71
2022/12/25 14:02:03;;;;;;;20.42;7.63;;;7.30;99.90;;;;;;5020679;28;20111;-72
2022/12/25 14:04:28;;;;;;;18.90;8.00;;;7.30;99.90;;;;;;5013773;28;20116;-76
2022/12/25 14:06:54;;;;;;;22.70;7.32;;;7.30;99.90;;;;;;5020895;28;20436;-74
2022/12/25 14:09:20;;;;;;;18.13;7.68;;;7.30;99.90;;;;;;5031165;28;20105;-73
2022/12/25 14:11:50;;;;;;;25.63;8.18;;;7.30;99.90;;;;;;5023590;28;20394;-76
2022/12/25 14:14:19;;;;;;;22.70;7.50;;;7.30;99.90;;;;;;5020579;28;20044;-74
2022/12/25 14:16:48;;;;;;;16.25;7.35;;;7.30;99.90;;;;;;5031309;28;20033;-72
2022/12/25 14:19:29;;;;;;;22.52;7.50;;;7.20;99.90;;;;;;5022931;28;20087;-72
2022/12/25 14:22:01;;;;;;;21.02;7.20;;;7.30;99.90;;;;;;5025215;28;20067;-73
2022/12/25 14:24:28;;;;;;;14.82;7.20;;;7.30;99.90;;;;;;5028277;28;20041;-73
2022/12/25 14:27:02;;;;;;;20.70;7.15;;;7.30;99.90;;;;;;5028568;28;20064;-72
2022/12/25 14:29:42;;;;;;;19.67;7.43;;;7.30;99.90;;;;;;5032631;28;20520;-70
2022/12/25 14:32:15;;;;;;;21.58;7.28;;;7.30;99.90;;;;;;5029023;28;20026;-71
2022/12/25 14:34:42;;;;;;;20.00;7.88;;;7.30;99.90;;;;;;5024777;28;20042;-74